sensor_id;sensor_type;location;lat;lon;timestamp;pressure;altitude;pressure_sealevel;temperature;humidity
38400;BME280;24180;42.676;23.320;2023-05-02T00:00:32;95083.44;;;12.15;100.00
38400;BME280;24180;42.676;23.320;2023-05-02T00:02:59;95078.16;;;12.07;100.00
38400;BME280;24180;42.676;23.320;2023-05-02T00:05:25;95071.63;;;12.03;100.00
38400;BME280;24180;42.676;23.320;2023-05-02T00:07:51;95051.44;;;11.88;100.00
38400;BME280;24180;42.676;23.320;2023-05-02T00:10:16;95067.81;;;11.98;100.00
38400;BME280;24180;42.676;23.320;2023-05-02T00:12:42;95075.81;;;12.04;100.00
38400;BME280;24180;42.676;23.320;2023-05-02T00:15:08;95053.34;;;11.95;100.00
38400;BME280;24180;42.676;23.320;2023-05-02T00:17:33;95076.59;;;12.14;100.00
38400;BME280;24180;42.676;23.320;2023-05-02T00:19:58;95059.50;;;11.94;100.00
38400;BME280;24180;42.676;23.320;2023-05-02T00:22:24;95077.31;;;12.07;100.00
38400;BME280;24180;42.676;23.320;2023-05-02T00:24:49;95053.34;;;11.95;100.00
38400;BME280;24180;42.676;23.320;2023-05-02T00:27:15;95061.78;;;11.97;100.00
38400;BME280;24180;42.676;23.320;2023-05-02T00:29:41;95090.13;;;12.08;100.00
38400;BME280;24180;42.676;23.320;2023-05-02T00:32:07;95094.91;;;12.13;100.00
38400;BME280;24180;42.676;23.320;2023-05-02T00:34:32;95081.72;;;11.97;100.00
38400;BME280;24180;42.676;23.320;2023-05-02T00:36:58;95098.63;;;12.10;100.00
38400;BME280;24180;42.676;23.320;2023-05-02T00:39:23;95099.56;;;12.09;100.00
38400;BME280;24180;42.676;23.320;2023-05-02T00:41:56;95068.91;;;11.95;100.00
38400;BME280;24180;42.676;23.320;2023-05-02T00:44:22;95114.50;;;12.07;100.00
38400;BME280;24180;42.676;23.320;2023-05-02T00:46:47;95099.25;;;11.95;100.00
38400;BME280;24180;42.676;23.320;2023-05-02T00:49:12;95117.22;;;12.06;100.00
38400;BME280;24180;42.676;23.320;2023-05-02T00:51:39;95081.44;;;12.00;100.00
38400;BME280;24180;42.676;23.320;2023-05-02T00:54:04;95112.16;;;12.04;100.00
38400;BME280;24180;42.676;23.320;2023-05-02T00:56:30;95114.75;;;12.04;100.00
38400;BME280;24180;42.676;23.320;2023-05-02T00:58:56;95089.28;;;11.90;100.00
38400;BME280;24180;42.676;23.320;2023-05-02T01:12:09;95114.84;;;12.12;100.00
38400;BME280;24180;42.676;23.320;2023-05-02T01:14:44;95085.34;;;11.86;100.00
38400;BME280;24180;42.676;23.320;2023-05-02T01:17:13;95103.63;;;11.94;100.00
38400;BME280;24180;42.676;23.320;2023-05-02T01:19:47;95077.28;;;11.80;100.00
38400;BME280;24180;42.676;23.320;2023-05-02T01:22:15;95104.28;;;11.96;100.00
38400;BME280;24180;42.676;23.320;2023-05-02T01:29:49;95060.81;;;11.71;100.00
38400;BME280;24180;42.676;23.320;2023-05-02T01:32:16;95062.44;;;11.72;100.00
38400;BME280;24180;42.676;23.320;2023-05-02T01:34:45;95091.78;;;11.82;100.00
38400;BME280;24180;42.676;23.320;2023-05-02T01:37:12;95099.97;;;11.78;100.00
38400;BME280;24180;42.676;23.320;2023-05-02T01:39:39;95108.28;;;11.81;100.00
38400;BME280;24180;42.676;23.320;2023-05-02T01:42:06;95067.38;;;11.56;100.00
38400;BME280;24180;42.676;23.320;2023-05-02T01:44:33;95090.28;;;11.70;100.00
38400;BME280;24180;42.676;23.320;2023-05-02T01:47:01;95083.50;;;11.59;100.00
38400;BME280;24180;42.676;23.320;2023-05-02T01:49:29;95091.41;;;11.58;100.00
38400;BME280;24180;42.676;23.320;2023-05-02T01:52:01;95098.19;;;11.68;100.00
38400;BME280;24180;42.676;23.320;2023-05-02T01:54:29;95104.22;;;11.79;100.00
38400;BME280;24180;42.676;23.320;2023-05-02T01:56:56;95100.94;;;11.67;100.00
38400;BME280;24180;42.676;23.320;2023-05-02T01:59:24;95098.63;;;11.64;100.00
38400;BME280;24180;42.676;23.320;2023-05-02T02:01:51;95093.47;;;11.54;100.00
38400;BME280;24180;42.676;23.320;2023-05-02T02:04:18;95090.06;;;11.54;100.00
38400;BME280;24180;42.676;23.320;2023-05-02T02:06:50;95095.13;;;11.55;100.00
38400;BME280;24180;42.676;23.320;2023-05-02T02:09:18;95104.78;;;11.63;100.00
38400;BME280;24180;42.676;23.320;2023-05-02T02:12:01;95106.44;;;11.54;100.00
38400;BME280;24180;42.676;23.320;2023-05-02T02:14:36;95071.00;;;11.36;100.00
38400;BME280;24180;42.676;23.320;2023-05-02T02:17:06;95097.84;;;11.44;100.00
38400;BME280;24180;42.676;23.320;2023-05-02T02:19:36;95097.03;;;11.44;100.00
38400;BME280;24180;42.676;23.320;2023-05-02T02:22:04;95029.63;;;10.97;100.00
38400;BME280;24180;42.676;23.320;2023-05-02T02:24:31;95103.19;;;11.43;100.00
38400;BME280;24180;42.676;23.320;2023-05-02T02:26:58;95105.69;;;11.35;100.00
38400;BME280;24180;42.676;23.320;2023-05-02T02:29:23;95077.88;;;11.17;100.00
38400;BME280;24180;42.676;23.320;2023-05-02T02:31:48;95080.47;;;11.17;100.00
38400;BME280;24180;42.676;23.320;2023-05-02T02:34:14;95076.50;;;11.13;100.00
38400;BME280;24180;42.676;23.320;2023-05-02T02:47:31;95112.34;;;11.27;100.00
38400;BME280;24180;42.676;23.320;2023-05-02T02:52:47;95111.69;;;11.16;100.00
38400;BME280;24180;42.676;23.320;2023-05-02T02:58:42;95116.63;;;11.19;100.00
38400;BME280;24180;42.676;23.320;2023-05-02T03:01:10;95114.56;;;11.13;100.00
38400;BME280;24180;42.676;23.320;2023-05-02T03:03:41;95059.50;;;10.72;100.00
38400;BME280;24180;42.676;23.320;2023-05-02T03:06:07;95105.16;;;10.93;100.00
38400;BME280;24180;42.676;23.320;2023-05-02T03:08:40;95123.97;;;11.04;100.00
38400;BME280;24180;42.676;23.320;2023-05-02T03:11:06;95130.53;;;11.08;100.00
38400;BME280;24180;42.676;23.320;2023-05-02T03:13:32;95137.06;;;11.12;100.00
38400;BME280;24180;42.676;23.320;2023-05-02T03:19:02;95121.94;;;11.08;100.00
38400;BME280;24180;42.676;23.320;2023-05-02T03:21:28;95114.19;;;10.98;100.00
38400;BME280;24180;42.676;23.320;2023-05-02T03:23:58;95140.22;;;11.06;100.00
38400;BME280;24180;42.676;23.320;2023-05-02T03:26:25;95134.63;;;11.01;100.00
38400;BME280;24180;42.676;23.320;2023-05-02T03:28:51;95119.47;;;10.97;100.00
38400;BME280;24180;42.676;23.320;2023-05-02T03:31:16;95141.59;;;11.10;100.00
38400;BME280;24180;42.676;23.320;2023-05-02T03:33:42;95147.03;;;11.07;100.00
38400;BME280;24180;42.676;23.320;2023-05-02T03:36:07;95149.22;;;11.02;100.00
38400;BME280;24180;42.676;23.320;2023-05-02T03:38:33;95119.75;;;10.84;100.00
38400;BME280;24180;42.676;23.320;2023-05-02T03:40:58;95115.56;;;10.83;100.00
38400;BME280;24180;42.676;23.320;2023-05-02T03:43:24;95141.72;;;10.99;100.00
38400;BME280;24180;42.676;23.320;2023-05-02T03:45:49;95127.25;;;10.77;100.00
38400;BME280;24180;42.676;23.320;2023-05-02T03:48:15;95146.91;;;10.99;100.00
38400;BME280;24180;42.676;23.320;2023-05-02T03:50:40;95137.63;;;10.87;100.00
38400;BME280;24180;42.676;23.320;2023-05-02T03:53:06;95129.72;;;10.89;100.00
38400;BME280;24180;42.676;23.320;2023-05-02T03:55:41;95158.09;;;11.09;100.00
38400;BME280;24180;42.676;23.320;2023-05-02T03:58:08;95131.63;;;10.96;100.00
38400;BME280;24180;42.676;23.320;2023-05-02T04:00:34;95121.66;;;10.92;100.00
38400;BME280;24180;42.676;23.320;2023-05-02T04:03:01;95146.91;;;11.18;100.00
38400;BME280;24180;42.676;23.320;2023-05-02T04:05:26;95117.06;;;10.95;100.00
38400;BME280;24180;42.676;23.320;2023-05-02T04:07:51;95134.09;;;10.98;100.00
38400;BME280;24180;42.676;23.320;2023-05-02T04:10:17;95127.78;;;11.00;100.00
38400;BME280;24180;42.676;23.320;2023-05-02T04:12:43;95124.38;;;11.00;100.00
38400;BME280;24180;42.676;23.320;2023-05-02T04:15:09;95165.19;;;11.26;100.00
38400;BME280;24180;42.676;23.320;2023-05-02T04:17:35;95130.69;;;11.07;100.00
38400;BME280;24180;42.676;23.320;2023-05-02T04:20:01;95124.13;;;11.22;100.00
38400;BME280;24180;42.676;23.320;2023-05-02T04:22:26;95127.38;;;11.24;100.00
38400;BME280;24180;42.676;23.320;2023-05-02T04:24:52;95149.06;;;11.42;100.00
38400;BME280;24180;42.676;23.320;2023-05-02T04:27:17;95124.66;;;11.25;100.00
38400;BME280;24180;42.676;23.320;2023-05-02T04:29:43;95129.84;;;11.35;100.00
38400;BME280;24180;42.676;23.320;2023-05-02T04:32:08;95157.78;;;11.51;100.00
38400;BME280;24180;42.676;23.320;2023-05-02T04:34:34;95143.84;;;11.52;100.00
38400;BME280;24180;42.676;23.320;2023-05-02T04:37:00;95150.78;;;11.61;100.00
38400;BME280;24180;42.676;23.320;2023-05-02T04:39:25;95151.75;;;11.60;100.00
38400;BME280;24180;42.676;23.320;2023-05-02T04:41:51;95128.84;;;11.55;100.00
38400;BME280;24180;42.676;23.320;2023-05-02T04:44:16;95130.72;;;11.63;100.00
38400;BME280;24180;42.676;23.320;2023-05-02T04:46:42;95158.13;;;11.85;100.00
38400;BME280;24180;42.676;23.320;2023-05-02T04:49:08;95164.13;;;11.85;100.00
38400;BME280;24180;42.676;23.320;2023-05-02T04:51:34;95158.94;;;11.95;100.00
38400;BME280;24180;42.676;23.320;2023-05-02T04:53:59;95163.13;;;11.96;100.00
38400;BME280;24180;42.676;23.320;2023-05-02T04:56:25;95146.22;;;11.92;100.00
38400;BME280;24180;42.676;23.320;2023-05-02T04:58:51;95128.94;;;11.83;100.00
38400;BME280;24180;42.676;23.320;2023-05-02T05:01:16;95168.84;;;12.09;100.00
38400;BME280;24180;42.676;23.320;2023-05-02T05:03:42;95142.78;;;12.01;100.00
38400;BME280;24180;42.676;23.320;2023-05-02T05:06:07;95114.28;;;11.91;100.00
38400;BME280;24180;42.676;23.320;2023-05-02T05:08:33;95166.31;;;12.27;100.00
38400;BME280;24180;42.676;23.320;2023-05-02T05:10:58;95162.78;;;12.28;100.00
38400;BME280;24180;42.676;23.320;2023-05-02T05:13:24;95134.25;;;12.18;100.00
38400;BME280;24180;42.676;23.320;2023-05-02T05:15:49;95171.31;;;12.38;100.00
38400;BME280;24180;42.676;23.320;2023-05-02T05:18:15;95137.88;;;12.25;100.00
38400;BME280;24180;42.676;23.320;2023-05-02T05:20:40;95122.09;;;12.18;100.00
38400;BME280;24180;42.676;23.320;2023-05-02T05:23:06;95144.13;;;12.32;100.00
38400;BME280;24180;42.676;23.320;2023-05-02T05:25:31;95138.13;;;12.32;100.00
38400;BME280;24180;42.676;23.320;2023-05-02T05:27:58;95139.72;;;12.42;100.00
38400;BME280;24180;42.676;23.320;2023-05-02T05:30:24;95170.47;;;12.64;100.00
38400;BME280;24180;42.676;23.320;2023-05-02T05:32:50;95175.25;;;12.69;100.00
38400;BME280;24180;42.676;23.320;2023-05-02T05:35:15;95179.47;;;12.70;100.00
38400;BME280;24180;42.676;23.320;2023-05-02T05:37:41;95164.72;;;12.71;100.00
38400;BME280;24180;42.676;23.320;2023-05-02T05:40:07;95146.75;;;12.59;100.00
38400;BME280;24180;42.676;23.320;2023-05-02T05:42:32;95154.53;;;12.77;100.00
38400;BME280;24180;42.676;23.320;2023-05-02T05:44:58;95157.47;;;12.92;100.00
38400;BME280;24180;42.676;23.320;2023-05-02T05:47:23;95149.66;;;12.92;100.00
38400;BME280;24180;42.676;23.320;2023-05-02T05:49:53;95176.44;;;13.20;100.00
38400;BME280;24180;42.676;23.320;2023-05-02T05:52:18;95183.44;;;13.19;100.00
38400;BME280;24180;42.676;23.320;2023-05-02T05:54:44;95169.59;;;13.19;100.00
38400;BME280;24180;42.676;23.320;2023-05-02T05:57:09;95157.31;;;13.29;100.00
38400;BME280;24180;42.676;23.320;2023-05-02T05:59:34;95180.28;;;13.51;100.00
38400;BME280;24180;42.676;23.320;2023-05-02T06:02:00;95184.66;;;13.50;100.00
38400;BME280;24180;42.676;23.320;2023-05-02T06:04:26;95184.22;;;13.55;100.00
38400;BME280;24180;42.676;23.320;2023-05-02T06:06:51;95190.00;;;13.67;100.00
38400;BME280;24180;42.676;23.320;2023-05-02T06:09:18;95173.63;;;13.56;100.00
38400;BME280;24180;42.676;23.320;2023-05-02T06:11:43;95182.31;;;13.65;100.00
38400;BME280;24180;42.676;23.320;2023-05-02T06:14:09;95187.00;;;13.79;100.00
38400;BME280;24180;42.676;23.320;2023-05-02T06:16:35;95187.56;;;13.91;100.00
38400;BME280;24180;42.676;23.320;2023-05-02T06:19:00;95186.41;;;13.93;100.00
38400;BME280;24180;42.676;23.320;2023-05-02T06:21:25;95191.38;;;14.04;100.00
38400;BME280;24180;42.676;23.320;2023-05-02T06:23:51;95145.28;;;13.97;100.00
38400;BME280;24180;42.676;23.320;2023-05-02T06:26:17;95163.94;;;14.18;100.00
38400;BME280;24180;42.676;23.320;2023-05-02T06:28:42;95180.50;;;14.35;100.00
38400;BME280;24180;42.676;23.320;2023-05-02T06:31:08;95158.63;;;14.28;100.00
38400;BME280;24180;42.676;23.320;2023-05-02T06:33:34;95178.78;;;14.51;100.00
38400;BME280;24180;42.676;23.320;2023-05-02T06:36:00;95175.00;;;14.46;100.00
38400;BME280;24180;42.676;23.320;2023-05-02T06:38:25;95152.22;;;14.48;100.00
38400;BME280;24180;42.676;23.320;2023-05-02T06:40:51;95183.72;;;14.63;100.00
38400;BME280;24180;42.676;23.320;2023-05-02T06:43:17;95185.19;;;14.73;100.00
38400;BME280;24180;42.676;23.320;2023-05-02T06:45:42;95179.69;;;14.76;100.00
38400;BME280;24180;42.676;23.320;2023-05-02T06:48:08;95163.34;;;14.66;100.00
38400;BME280;24180;42.676;23.320;2023-05-02T06:50:34;95171.91;;;14.84;100.00
38400;BME280;24180;42.676;23.320;2023-05-02T06:53:00;95176.59;;;14.89;100.00
38400;BME280;24180;42.676;23.320;2023-05-02T06:55:26;95173.88;;;14.98;100.00
38400;BME280;24180;42.676;23.320;2023-05-02T06:57:53;95168.53;;;15.08;100.00
38400;BME280;24180;42.676;23.320;2023-05-02T07:00:19;95150.09;;;15.10;100.00
38400;BME280;24180;42.676;23.320;2023-05-02T07:02:46;95143.44;;;15.23;100.00
38400;BME280;24180;42.676;23.320;2023-05-02T07:05:12;95152.72;;;15.34;100.00
38400;BME280;24180;42.676;23.320;2023-05-02T07:07:43;95148.50;;;15.57;100.00
38400;BME280;24180;42.676;23.320;2023-05-02T07:10:09;95116.97;;;15.83;100.00
38400;BME280;24180;42.676;23.320;2023-05-02T07:12:34;95163.25;;;16.21;100.00
38400;BME280;24180;42.676;23.320;2023-05-02T07:15:00;95160.22;;;16.49;100.00
38400;BME280;24180;42.676;23.320;2023-05-02T07:17:25;95173.81;;;16.44;99.22
38400;BME280;24180;42.676;23.320;2023-05-02T07:19:51;95173.84;;;16.28;98.08
38400;BME280;24180;42.676;23.320;2023-05-02T07:22:17;95184.81;;;16.15;98.37
38400;BME280;24180;42.676;23.320;2023-05-02T07:24:43;95150.41;;;16.04;98.88
38400;BME280;24180;42.676;23.320;2023-05-02T07:27:09;95173.50;;;16.31;97.47
38400;BME280;24180;42.676;23.320;2023-05-02T07:29:35;95149.66;;;16.26;94.63
38400;BME280;24180;42.676;23.320;2023-05-02T07:32:00;95159.72;;;16.45;96.24
38400;BME280;24180;42.676;23.320;2023-05-02T07:34:26;95182.91;;;16.56;93.97
38400;BME280;24180;42.676;23.320;2023-05-02T07:36:51;95171.63;;;16.64;93.97
38400;BME280;24180;42.676;23.320;2023-05-02T07:39:17;95178.59;;;16.79;93.70
38400;BME280;24180;42.676;23.320;2023-05-02T07:41:42;95177.06;;;16.85;92.08
38400;BME280;24180;42.676;23.320;2023-05-02T07:44:07;95163.34;;;16.83;90.09
38400;BME280;24180;42.676;23.320;2023-05-02T07:46:33;95181.31;;;16.86;90.50
38400;BME280;24180;42.676;23.320;2023-05-02T07:48:58;95181.75;;;16.98;90.48
38400;BME280;24180;42.676;23.320;2023-05-02T07:51:24;95178.50;;;16.96;87.39
38400;BME280;24180;42.676;23.320;2023-05-02T07:53:51;95172.75;;;17.00;87.75
38400;BME280;24180;42.676;23.320;2023-05-02T07:56:18;95166.91;;;17.21;89.95
38400;BME280;24180;42.676;23.320;2023-05-02T07:58:44;95152.22;;;17.35;88.49
38400;BME280;24180;42.676;23.320;2023-05-02T08:01:09;95177.75;;;17.63;85.67
38400;BME280;24180;42.676;23.320;2023-05-02T08:03:35;95177.50;;;17.73;81.62
38400;BME280;24180;42.676;23.320;2023-05-02T08:06:01;95171.63;;;17.86;82.97
38400;BME280;24180;42.676;23.320;2023-05-02T08:08:26;95177.81;;;17.93;82.71
38400;BME280;24180;42.676;23.320;2023-05-02T08:10:52;95176.09;;;18.00;80.92
38400;BME280;24180;42.676;23.320;2023-05-02T08:13:17;95164.06;;;17.91;80.93
38400;BME280;24180;42.676;23.320;2023-05-02T08:15:43;95167.63;;;18.12;79.58
38400;BME280;24180;42.676;23.320;2023-05-02T08:18:08;95184.00;;;18.44;77.79
38400;BME280;24180;42.676;23.320;2023-05-02T08:20:34;95156.97;;;18.73;77.54
38400;BME280;24180;42.676;23.320;2023-05-02T08:23:00;95173.34;;;18.75;72.92
38400;BME280;24180;42.676;23.320;2023-05-02T08:25:25;95182.91;;;18.97;72.96
38400;BME280;24180;42.676;23.320;2023-05-02T08:27:51;95104.06;;;18.54;71.10
38400;BME280;24180;42.676;23.320;2023-05-02T08:30:16;95166.13;;;19.12;70.36
38400;BME280;24180;42.676;23.320;2023-05-02T08:32:42;95169.28;;;19.44;67.92
38400;BME280;24180;42.676;23.320;2023-05-02T08:35:07;95171.69;;;19.24;66.17
38400;BME280;24180;42.676;23.320;2023-05-02T08:37:33;95145.31;;;19.32;65.07
38400;BME280;24180;42.676;23.320;2023-05-02T08:39:59;95189.81;;;19.76;64.55
38400;BME280;24180;42.676;23.320;2023-05-02T08:42:25;95167.97;;;19.76;61.90
38400;BME280;24180;42.676;23.320;2023-05-02T08:44:51;95126.78;;;19.83;62.98
38400;BME280;24180;42.676;23.320;2023-05-02T08:47:17;95171.84;;;20.35;60.30
38400;BME280;24180;42.676;23.320;2023-05-02T08:49:43;95162.41;;;20.47;60.35
38400;BME280;24180;42.676;23.320;2023-05-02T08:52:11;95151.56;;;20.64;59.53
38400;BME280;24180;42.676;23.320;2023-05-02T08:54:37;95162.50;;;20.61;58.87
38400;BME280;24180;42.676;23.320;2023-05-02T08:57:04;95135.03;;;20.83;56.68
38400;BME280;24180;42.676;23.320;2023-05-02T08:59:30;95132.66;;;20.88;56.92
38400;BME280;24180;42.676;23.320;2023-05-02T09:02:03;95130.88;;;21.08;54.28
38400;BME280;24180;42.676;23.320;2023-05-02T09:04:31;95124.16;;;20.99;53.52
38400;BME280;24180;42.676;23.320;2023-05-02T09:06:58;95126.75;;;20.79;53.93
38400;BME280;24180;42.676;23.320;2023-05-02T09:09:24;95148.44;;;20.88;53.93
38400;BME280;24180;42.676;23.320;2023-05-02T09:11:51;95125.25;;;20.64;53.86
38400;BME280;24180;42.676;23.320;2023-05-02T09:14:17;95149.25;;;20.88;54.29
38400;BME280;24180;42.676;23.320;2023-05-02T09:16:42;95153.31;;;20.91;53.52
38400;BME280;24180;42.676;23.320;2023-05-02T09:19:08;95151.06;;;20.88;54.24
38400;BME280;24180;42.676;23.320;2023-05-02T09:21:35;95141.59;;;20.93;52.57
38400;BME280;24180;42.676;23.320;2023-05-02T09:24:14;95154.44;;;21.16;51.86
38400;BME280;24180;42.676;23.320;2023-05-02T09:26:41;95138.06;;;21.40;51.51
38400;BME280;24180;42.676;23.320;2023-05-02T09:29:06;95135.25;;;21.88;49.67
38400;BME280;24180;42.676;23.320;2023-05-02T09:31:33;95122.63;;;22.36;47.73
38400;BME280;24180;42.676;23.320;2023-05-02T09:34:08;95148.81;;;22.51;47.35
38400;BME280;24180;42.676;23.320;2023-05-02T09:36:45;95113.91;;;22.42;46.62
38400;BME280;24180;42.676;23.320;2023-05-02T09:39:14;95139.06;;;22.45;46.08
38400;BME280;24180;42.676;23.320;2023-05-02T09:41:46;95129.91;;;22.47;45.65
38400;BME280;24180;42.676;23.320;2023-05-02T09:44:17;95136.84;;;22.35;45.15
38400;BME280;24180;42.676;23.320;2023-05-02T09:46:45;95126.56;;;22.14;45.39
38400;BME280;24180;42.676;23.320;2023-05-02T09:49:11;95123.66;;;22.35;44.66
38400;BME280;24180;42.676;23.320;2023-05-02T09:51:39;95111.53;;;22.08;45.17
38400;BME280;24180;42.676;23.320;2023-05-02T09:54:04;95112.94;;;22.23;44.78
38400;BME280;24180;42.676;23.320;2023-05-02T09:56:30;95108.97;;;22.65;44.14
38400;BME280;24180;42.676;23.320;2023-05-02T09:59:14;95096.72;;;22.84;42.34
38400;BME280;24180;42.676;23.320;2023-05-02T10:01:41;95119.44;;;23.29;41.77
38400;BME280;24180;42.676;23.320;2023-05-02T10:04:16;95111.94;;;23.58;40.60
38400;BME280;24180;42.676;23.320;2023-05-02T10:06:43;95114.59;;;23.83;40.08
38400;BME280;24180;42.676;23.320;2023-05-02T10:09:10;95103.63;;;24.83;38.10
38400;BME280;24180;42.676;23.320;2023-05-02T10:11:41;95099.38;;;25.42;36.49
38400;BME280;24180;42.676;23.320;2023-05-02T10:14:09;95088.19;;;24.62;36.30
38400;BME280;24180;42.676;23.320;2023-05-02T10:16:38;95098.22;;;26.37;34.31
38400;BME280;24180;42.676;23.320;2023-05-02T10:19:08;95097.66;;;28.77;30.26
38400;BME280;24180;42.676;23.320;2023-05-02T10:21:35;95080.56;;;29.43;29.70
38400;BME280;24180;42.676;23.320;2023-05-02T10:24:01;95091.34;;;30.17;28.17
38400;BME280;24180;42.676;23.320;2023-05-02T10:26:28;95090.06;;;31.44;27.08
38400;BME280;24180;42.676;23.320;2023-05-02T10:28:55;95085.22;;;32.67;24.71
38400;BME280;24180;42.676;23.320;2023-05-02T10:31:21;95065.47;;;33.02;24.17
38400;BME280;24180;42.676;23.320;2023-05-02T10:33:50;95081.81;;;33.60;23.86
38400;BME280;24180;42.676;23.320;2023-05-02T10:36:21;95058.75;;;32.30;24.56
38400;BME280;24180;42.676;23.320;2023-05-02T10:38:47;95052.59;;;31.99;24.64
38400;BME280;24180;42.676;23.320;2023-05-02T10:41:18;95076.06;;;33.37;24.10
38400;BME280;24180;42.676;23.320;2023-05-02T10:43:46;95054.00;;;34.18;23.54
38400;BME280;24180;42.676;23.320;2023-05-02T10:46:35;95070.75;;;33.27;23.35
38400;BME280;24180;42.676;23.320;2023-05-02T10:49:11;95061.97;;;33.17;23.55
38400;BME280;24180;42.676;23.320;2023-05-02T10:51:39;95055.44;;;33.72;23.09
38400;BME280;24180;42.676;23.320;2023-05-02T10:54:24;95070.13;;;34.18;22.91
38400;BME280;24180;42.676;23.320;2023-05-02T11:01:56;95060.03;;;32.53;23.60
38400;BME280;24180;42.676;23.320;2023-05-02T11:04:22;95049.94;;;32.99;23.41
38400;BME280;24180;42.676;23.320;2023-05-02T11:11:53;94997.28;;;29.78;25.94
38400;BME280;24180;42.676;23.320;2023-05-02T11:19:27;95036.69;;;28.80;27.65
38400;BME280;24180;42.676;23.320;2023-05-02T11:24:46;95019.94;;;30.07;26.29
38400;BME280;24180;42.676;23.320;2023-05-02T11:30:00;95027.78;;;29.50;25.91
38400;BME280;24180;42.676;23.320;2023-05-02T11:35:26;95036.81;;;29.76;26.79
38400;BME280;24180;42.676;23.320;2023-05-02T11:37:59;95014.09;;;30.62;25.89
38400;BME280;24180;42.676;23.320;2023-05-02T11:40:26;95015.94;;;31.65;25.14
38400;BME280;24180;42.676;23.320;2023-05-02T11:42:53;95012.19;;;31.45;24.91
38400;BME280;24180;42.676;23.320;2023-05-02T11:45:18;95034.69;;;31.80;24.51
38400;BME280;24180;42.676;23.320;2023-05-02T11:47:46;95029.56;;;32.03;23.83
38400;BME280;24180;42.676;23.320;2023-05-02T11:50:12;95018.56;;;33.00;23.60
38400;BME280;24180;42.676;23.320;2023-05-02T11:52:40;95021.63;;;34.28;22.74
38400;BME280;24180;42.676;23.320;2023-05-02T11:55:07;94999.50;;;33.01;23.61
38400;BME280;24180;42.676;23.320;2023-05-02T11:57:33;95009.03;;;33.22;23.71
38400;BME280;24180;42.676;23.320;2023-05-02T11:59:59;94984.28;;;32.02;23.89
38400;BME280;24180;42.676;23.320;2023-05-02T12:02:38;94998.28;;;31.69;24.61
38400;BME280;24180;42.676;23.320;2023-05-02T12:05:05;94996.28;;;30.88;25.40
38400;BME280;24180;42.676;23.320;2023-05-02T12:07:44;94993.97;;;31.47;25.38
38400;BME280;24180;42.676;23.320;2023-05-02T12:10:11;94978.25;;;32.61;24.14
38400;BME280;24180;42.676;23.320;2023-05-02T12:12:38;94975.09;;;33.75;22.71
38400;BME280;24180;42.676;23.320;2023-05-02T12:15:05;94965.16;;;33.76;22.82
38400;BME280;24180;42.676;23.320;2023-05-02T12:17:38;94976.38;;;35.02;22.02
38400;BME280;24180;42.676;23.320;2023-05-02T12:20:09;94991.75;;;34.06;22.53
38400;BME280;24180;42.676;23.320;2023-05-02T12:22:34;94985.25;;;32.46;23.78
38400;BME280;24180;42.676;23.320;2023-05-02T12:25:01;94991.75;;;32.30;24.07
38400;BME280;24180;42.676;23.320;2023-05-02T12:27:28;94984.38;;;31.56;24.22
38400;BME280;24180;42.676;23.320;2023-05-02T12:29:53;94982.22;;;31.64;24.38
38400;BME280;24180;42.676;23.320;2023-05-02T12:32:29;94984.44;;;30.74;25.16
38400;BME280;24180;42.676;23.320;2023-05-02T12:34:55;94959.53;;;29.27;26.14
38400;BME280;24180;42.676;23.320;2023-05-02T12:37:24;94971.53;;;27.89;28.00
38400;BME280;24180;42.676;23.320;2023-05-02T12:39:50;94947.31;;;27.19;28.48
38400;BME280;24180;42.676;23.320;2023-05-02T12:42:20;94929.16;;;26.15;29.51
38400;BME280;24180;42.676;23.320;2023-05-02T12:44:47;94947.09;;;25.84;29.61
38400;BME280;24180;42.676;23.320;2023-05-02T12:47:15;94931.66;;;25.23;30.67
38400;BME280;24180;42.676;23.320;2023-05-02T12:52:19;94952.59;;;24.23;33.29
38400;BME280;24180;42.676;23.320;2023-05-02T12:54:45;94917.44;;;23.87;32.91
38400;BME280;24180;42.676;23.320;2023-05-02T12:57:24;94929.25;;;23.66;33.11
38400;BME280;24180;42.676;23.320;2023-05-02T12:59:52;94955.06;;;23.46;34.38
38400;BME280;24180;42.676;23.320;2023-05-02T13:02:19;94938.19;;;23.22;33.77
38400;BME280;24180;42.676;23.320;2023-05-02T13:04:45;94948.16;;;23.45;34.24
38400;BME280;24180;42.676;23.320;2023-05-02T13:07:10;94920.41;;;22.86;34.18
38400;BME280;24180;42.676;23.320;2023-05-02T13:09:36;94940.06;;;22.90;35.02
38400;BME280;24180;42.676;23.320;2023-05-02T13:12:01;94958.97;;;22.87;35.50
38400;BME280;24180;42.676;23.320;2023-05-02T13:14:30;94909.66;;;22.18;35.08
38400;BME280;24180;42.676;23.320;2023-05-02T13:16:56;94959.81;;;22.43;35.14
38400;BME280;24180;42.676;23.320;2023-05-02T13:19:21;94939.19;;;22.27;35.85
38400;BME280;24180;42.676;23.320;2023-05-02T13:21:47;94959.97;;;22.55;36.18
38400;BME280;24180;42.676;23.320;2023-05-02T13:24:13;94955.72;;;22.54;35.71
38400;BME280;24180;42.676;23.320;2023-05-02T13:26:39;94968.09;;;22.53;35.64
38400;BME280;24180;42.676;23.320;2023-05-02T13:29:05;94958.75;;;22.57;35.72
38400;BME280;24180;42.676;23.320;2023-05-02T13:31:31;94948.00;;;22.52;35.54
38400;BME280;24180;42.676;23.320;2023-05-02T13:33:56;94962.03;;;22.08;36.09
38400;BME280;24180;42.676;23.320;2023-05-02T13:36:22;94908.97;;;21.78;35.52
38400;BME280;24180;42.676;23.320;2023-05-02T13:38:48;94969.34;;;22.00;36.88
38400;BME280;24180;42.676;23.320;2023-05-02T13:41:14;94942.59;;;21.96;36.67
38400;BME280;24180;42.676;23.320;2023-05-02T13:43:39;94927.97;;;22.00;36.71
38400;BME280;24180;42.676;23.320;2023-05-02T13:46:05;94946.66;;;21.99;37.28